sensor_id;sensor_type;location;lat;lon;timestamp;temperature;humidity
12460;DHT22;6295;49.452;8.466;2022-09-06T00:03:43;18.50;99.90
12460;DHT22;6295;49.452;8.466;2022-09-06T00:07:47;18.50;99.90
12460;DHT22;6295;49.452;8.466;2022-09-06T00:11:49;18.40;99.90
12460;DHT22;6295;49.452;8.466;2022-09-06T00:19:53;18.40;99.90
12460;DHT22;6295;49.452;8.466;2022-09-06T00:23:56;18.40;99.90
12460;DHT22;6295;49.452;8.466;2022-09-06T00:28:01;18.40;99.90
12460;DHT22;6295;49.452;8.466;2022-09-06T00:36:06;18.50;99.90
12460;DHT22;6295;49.452;8.466;2022-09-06T00:40:11;18.50;99.90
12460;DHT22;6295;49.452;8.466;2022-09-06T00:44:13;18.40;99.90
12460;DHT22;6295;49.452;8.466;2022-09-06T00:48:16;18.50;99.90
12460;DHT22;6295;49.452;8.466;2022-09-06T00:52:19;18.50;99.90
12460;DHT22;6295;49.452;8.466;2022-09-06T00:56:23;18.50;99.90
12460;DHT22;6295;49.452;8.466;2022-09-06T01:00:25;18.50;99.90
12460;DHT22;6295;49.452;8.466;2022-09-06T01:04:28;18.50;99.90
12460;DHT22;6295;49.452;8.466;2022-09-06T01:08:42;18.50;99.90
12460;DHT22;6295;49.452;8.466;2022-09-06T01:12:55;18.50;99.90
12460;DHT22;6295;49.452;8.466;2022-09-06T01:17:06;18.50;99.90
12460;DHT22;6295;49.452;8.466;2022-09-06T01:21:18;18.40;99.90
12460;DHT22;6295;49.452;8.466;2022-09-06T01:29:43;18.40;99.90
12460;DHT22;6295;49.452;8.466;2022-09-06T01:33:50;18.60;99.90
12460;DHT22;6295;49.452;8.466;2022-09-06T01:37:55;18.90;99.90
12460;DHT22;6295;49.452;8.466;2022-09-06T01:42:01;19.30;99.90
12460;DHT22;6295;49.452;8.466;2022-09-06T01:46:12;19.80;99.90
12460;DHT22;6295;49.452;8.466;2022-09-06T01:50:34;20.20;99.90
12460;DHT22;6295;49.452;8.466;2022-09-06T01:54:52;20.40;99.90
12460;DHT22;6295;49.452;8.466;2022-09-06T01:59:17;20.50;99.90
12460;DHT22;6295;49.452;8.466;2022-09-06T02:03:31;20.60;99.90
12460;DHT22;6295;49.452;8.466;2022-09-06T02:07:34;20.70;99.90
12460;DHT22;6295;49.452;8.466;2022-09-06T02:11:39;20.70;99.90
12460;DHT22;6295;49.452;8.466;2022-09-06T02:15:48;20.60;99.90
12460;DHT22;6295;49.452;8.466;2022-09-06T02:24:00;20.60;99.90
12460;DHT22;6295;49.452;8.466;2022-09-06T02:28:03;20.50;99.90
12460;DHT22;6295;49.452;8.466;2022-09-06T02:36:11;20.30;99.90
12460;DHT22;6295;49.452;8.466;2022-09-06T02:40:13;20.20;99.90
12460;DHT22;6295;49.452;8.466;2022-09-06T02:44:15;20.20;99.90
12460;DHT22;6295;49.452;8.466;2022-09-06T02:48:17;20.10;99.90
12460;DHT22;6295;49.452;8.466;2022-09-06T02:56:23;20.10;99.90
12460;DHT22;6295;49.452;8.466;2022-09-06T03:08:32;20.10;99.90
12460;DHT22;6295;49.452;8.466;2022-09-06T03:12:36;20.10;99.90
12460;DHT22;6295;49.452;8.466;2022-09-06T03:16:38;20.00;99.90
12460;DHT22;6295;49.452;8.466;2022-09-06T03:20:40;20.00;99.90
12460;DHT22;6295;49.452;8.466;2022-09-06T03:24:43;19.90;99.90
12460;DHT22;6295;49.452;8.466;2022-09-06T03:28:45;19.90;99.90
12460;DHT22;6295;49.452;8.466;2022-09-06T03:32:47;19.80;99.90
12460;DHT22;6295;49.452;8.466;2022-09-06T03:44:55;19.70;99.90
12460;DHT22;6295;49.452;8.466;2022-09-06T03:48:57;19.70;99.90
12460;DHT22;6295;49.452;8.466;2022-09-06T03:52:59;19.50;99.90
12460;DHT22;6295;49.452;8.466;2022-09-06T04:01:07;19.40;99.90
12460;DHT22;6295;49.452;8.466;2022-09-06T04:09:12;19.20;99.90
12460;DHT22;6295;49.452;8.466;2022-09-06T04:17:19;18.90;99.90
12460;DHT22;6295;49.452;8.466;2022-09-06T04:21:21;18.90;99.90
12460;DHT22;6295;49.452;8.466;2022-09-06T04:25:23;18.70;99.90
12460;DHT22;6295;49.452;8.466;2022-09-06T04:33:29;18.60;99.90
12460;DHT22;6295;49.452;8.466;2022-09-06T04:37:31;18.60;99.90
12460;DHT22;6295;49.452;8.466;2022-09-06T04:41:33;18.50;99.90
12460;DHT22;6295;49.452;8.466;2022-09-06T04:45:37;18.50;99.90
12460;DHT22;6295;49.452;8.466;2022-09-06T04:49:39;18.50;99.90
12460;DHT22;6295;49.452;8.466;2022-09-06T04:53:41;18.50;99.90
12460;DHT22;6295;49.452;8.466;2022-09-06T04:57:43;18.50;99.90
12460;DHT22;6295;49.452;8.466;2022-09-06T05:01:47;18.50;99.90
12460;DHT22;6295;49.452;8.466;2022-09-06T05:09:52;18.40;99.90
12460;DHT22;6295;49.452;8.466;2022-09-06T05:13:54;18.40;99.90
12460;DHT22;6295;49.452;8.466;2022-09-06T05:18:02;18.40;99.90
12460;DHT22;6295;49.452;8.466;2022-09-06T05:22:04;18.40;99.90
12460;DHT22;6295;49.452;8.466;2022-09-06T05:26:06;18.40;99.90
12460;DHT22;6295;49.452;8.466;2022-09-06T05:34:13;18.50;99.90
12460;DHT22;6295;49.452;8.466;2022-09-06T05:38:15;18.50;99.90
12460;DHT22;6295;49.452;8.466;2022-09-06T05:42:18;18.60;99.90
12460;DHT22;6295;49.452;8.466;2022-09-06T05:54:30;18.80;99.90
12460;DHT22;6295;49.452;8.466;2022-09-06T05:58:34;18.80;99.90
12460;DHT22;6295;49.452;8.466;2022-09-06T06:02:38;18.90;99.90
12460;DHT22;6295;49.452;8.466;2022-09-06T06:06:42;18.80;99.90
12460;DHT22;6295;49.452;8.466;2022-09-06T06:10:45;18.90;99.90
12460;DHT22;6295;49.452;8.466;2022-09-06T06:14:47;18.90;99.90
12460;DHT22;6295;49.452;8.466;2022-09-06T06:22:54;19.00;99.90
12460;DHT22;6295;49.452;8.466;2022-09-06T06:26:56;19.00;99.90
12460;DHT22;6295;49.452;8.466;2022-09-06T06:30:58;19.10;99.90
12460;DHT22;6295;49.452;8.466;2022-09-06T06:39:05;19.10;99.90
12460;DHT22;6295;49.452;8.466;2022-09-06T06:43:08;19.10;99.90
12460;DHT22;6295;49.452;8.466;2022-09-06T06:47:11;19.20;99.90
12460;DHT22;6295;49.452;8.466;2022-09-06T06:51:14;19.40;99.90
12460;DHT22;6295;49.452;8.466;2022-09-06T06:55:18;19.50;99.90
12460;DHT22;6295;49.452;8.466;2022-09-06T06:59:20;19.80;99.90
12460;DHT22;6295;49.452;8.466;2022-09-06T07:03:22;20.00;99.90
12460;DHT22;6295;49.452;8.466;2022-09-06T07:07:25;20.10;99.90
12460;DHT22;6295;49.452;8.466;2022-09-06T07:11:29;20.10;99.90
12460;DHT22;6295;49.452;8.466;2022-09-06T07:19:33;20.20;99.90
12460;DHT22;6295;49.452;8.466;2022-09-06T07:23:36;20.20;99.90
12460;DHT22;6295;49.452;8.466;2022-09-06T07:27:40;20.30;99.90
12460;DHT22;6295;49.452;8.466;2022-09-06T07:31:43;20.30;99.90
12460;DHT22;6295;49.452;8.466;2022-09-06T07:35:54;20.30;99.90
12460;DHT22;6295;49.452;8.466;2022-09-06T07:44:00;20.40;99.90
12460;DHT22;6295;49.452;8.466;2022-09-06T07:48:02;20.40;99.90
12460;DHT22;6295;49.452;8.466;2022-09-06T07:52:04;20.50;99.90
12460;DHT22;6295;49.452;8.466;2022-09-06T07:56:11;20.50;99.90
12460;DHT22;6295;49.452;8.466;2022-09-06T08:00:15;20.60;99.90
12460;DHT22;6295;49.452;8.466;2022-09-06T08:04:19;20.60;99.90
12460;DHT22;6295;49.452;8.466;2022-09-06T08:08:21;20.70;99.90
12460;DHT22;6295;49.452;8.466;2022-09-06T08:16:29;20.80;99.90
12460;DHT22;6295;49.452;8.466;2022-09-06T08:20:32;20.90;99.90
12460;DHT22;6295;49.452;8.466;2022-09-06T08:24:34;20.90;99.90
12460;DHT22;6295;49.452;8.466;2022-09-06T08:32:41;21.30;99.90
12460;DHT22;6295;49.452;8.466;2022-09-06T08:36:44;21.40;99.90
12460;DHT22;6295;49.452;8.466;2022-09-06T08:40:47;21.60;99.90
12460;DHT22;6295;49.452;8.466;2022-09-06T08:44:50;21.70;99.90
12460;DHT22;6295;49.452;8.466;2022-09-06T08:48:56;21.80;99.90
12460;DHT22;6295;49.452;8.466;2022-09-06T08:53:03;22.10;99.90
12460;DHT22;6295;49.452;8.466;2022-09-06T08:57:13;22.30;99.90
12460;DHT22;6295;49.452;8.466;2022-09-06T09:01:18;22.40;99.90
12460;DHT22;6295;49.452;8.466;2022-09-06T09:05:27;22.60;99.90
12460;DHT22;6295;49.452;8.466;2022-09-06T09:09:32;22.70;99.90
12460;DHT22;6295;49.452;8.466;2022-09-06T09:13:42;22.80;99.90
12460;DHT22;6295;49.452;8.466;2022-09-06T09:17:50;23.00;99.90
12460;DHT22;6295;49.452;8.466;2022-09-06T09:21:57;23.20;99.90
12460;DHT22;6295;49.452;8.466;2022-09-06T09:26:03;23.30;99.90
12460;DHT22;6295;49.452;8.466;2022-09-06T09:30:09;23.50;99.90
12460;DHT22;6295;49.452;8.466;2022-09-06T09:34:13;23.60;99.90
12460;DHT22;6295;49.452;8.466;2022-09-06T09:42:25;23.90;99.90
12460;DHT22;6295;49.452;8.466;2022-09-06T09:46:31;24.00;99.90
12460;DHT22;6295;49.452;8.466;2022-09-06T09:50:35;24.10;99.90
12460;DHT22;6295;49.452;8.466;2022-09-06T09:54:43;24.20;99.90
12460;DHT22;6295;49.452;8.466;2022-09-06T09:58:48;24.30;99.90
12460;DHT22;6295;49.452;8.466;2022-09-06T10:02:51;24.40;99.90
12460;DHT22;6295;49.452;8.466;2022-09-06T10:07:08;24.60;99.90
12460;DHT22;6295;49.452;8.466;2022-09-06T10:11:14;24.70;99.90
12460;DHT22;6295;49.452;8.466;2022-09-06T10:15:33;24.80;99.90
12460;DHT22;6295;49.452;8.466;2022-09-06T10:19:41;24.80;99.90
12460;DHT22;6295;49.452;8.466;2022-09-06T10:23:59;25.00;99.90
12460;DHT22;6295;49.452;8.466;2022-09-06T10:28:29;25.10;99.90
12460;DHT22;6295;49.452;8.466;2022-09-06T10:32:39;25.20;99.90
12460;DHT22;6295;49.452;8.466;2022-09-06T10:36:48;25.40;99.90
12460;DHT22;6295;49.452;8.466;2022-09-06T10:41:11;25.50;99.90
12460;DHT22;6295;49.452;8.466;2022-09-06T10:45:27;25.60;99.90
12460;DHT22;6295;49.452;8.466;2022-09-06T10:49:32;25.70;99.90
12460;DHT22;6295;49.452;8.466;2022-09-06T10:53:43;25.80;99.90
12460;DHT22;6295;49.452;8.466;2022-09-06T10:57:49;25.90;99.90
12460;DHT22;6295;49.452;8.466;2022-09-06T11:02:07;26.00;99.90
12460;DHT22;6295;49.452;8.466;2022-09-06T11:06:12;26.10;99.90
12460;DHT22;6295;49.452;8.466;2022-09-06T11:14:21;26.30;99.90
12460;DHT22;6295;49.452;8.466;2022-09-06T11:18:29;26.40;99.90
12460;DHT22;6295;49.452;8.466;2022-09-06T11:22:45;26.50;99.90
12460;DHT22;6295;49.452;8.466;2022-09-06T11:27:00;26.60;99.90
12460;DHT22;6295;49.452;8.466;2022-09-06T11:31:12;26.60;99.90
12460;DHT22;6295;49.452;8.466;2022-09-06T11:35:26;26.80;99.90
12460;DHT22;6295;49.452;8.466;2022-09-06T11:39:33;26.90;99.90
12460;DHT22;6295;49.452;8.466;2022-09-06T11:47:47;27.00;99.90
12460;DHT22;6295;49.452;8.466;2022-09-06T11:51:51;27.10;99.90
12460;DHT22;6295;49.452;8.466;2022-09-06T11:56:21;27.20;99.90
12460;DHT22;6295;49.452;8.466;2022-09-06T12:00:26;27.30;99.90
12460;DHT22;6295;49.452;8.466;2022-09-06T12:05:07;27.30;99.90
12460;DHT22;6295;49.452;8.466;2022-09-06T12:09:31;27.40;99.90
12460;DHT22;6295;49.452;8.466;2022-09-06T12:13:41;27.50;99.90
12460;DHT22;6295;49.452;8.466;2022-09-06T12:17:49;27.60;99.90
12460;DHT22;6295;49.452;8.466;2022-09-06T12:25:57;27.80;99.90
12460;DHT22;6295;49.452;8.466;2022-09-06T12:30:01;27.80;99.90
12460;DHT22;6295;49.452;8.466;2022-09-06T12:34:11;27.90;99.90
12460;DHT22;6295;49.452;8.466;2022-09-06T12:38:14;28.00;99.90
12460;DHT22;6295;49.452;8.466;2022-09-06T12:42:19;28.10;99.90
12460;DHT22;6295;49.452;8.466;2022-09-06T12:46:23;28.10;99.90
12460;DHT22;6295;49.452;8.466;2022-09-06T12:50:26;28.20;99.90
12460;DHT22;6295;49.452;8.466;2022-09-06T12:54:31;28.20;99.90
12460;DHT22;6295;49.452;8.466;2022-09-06T12:58:36;28.30;99.90
12460;DHT22;6295;49.452;8.466;2022-09-06T13:02:44;28.20;99.90
12460;DHT22;6295;49.452;8.466;2022-09-06T13:06:48;28.10;99.90
12460;DHT22;6295;49.452;8.466;2022-09-06T13:10:51;27.90;99.90
12460;DHT22;6295;49.452;8.466;2022-09-06T13:14:56;27.70;99.90
12460;DHT22;6295;49.452;8.466;2022-09-06T13:19:10;27.60;99.90
12460;DHT22;6295;49.452;8.466;2022-09-06T13:23:19;27.50;99.90
12460;DHT22;6295;49.452;8.466;2022-09-06T13:27:23;27.30;99.90
12460;DHT22;6295;49.452;8.466;2022-09-06T13:31:27;27.30;99.90
12460;DHT22;6295;49.452;8.466;2022-09-06T13:35:31;27.20;99.90
12460;DHT22;6295;49.452;8.466;2022-09-06T13:55:51;26.90;99.90
12460;DHT22;6295;49.452;8.466;2022-09-06T13:59:53;26.80;99.90
12460;DHT22;6295;49.452;8.466;2022-09-06T14:12:06;26.60;99.90
12460;DHT22;6295;49.452;8.466;2022-09-06T14:16:10;26.50;99.90
12460;DHT22;6295;49.452;8.466;2022-09-06T14:20:14;26.40;99.90
12460;DHT22;6295;49.452;8.466;2022-09-06T14:32:21;26.00;99.90
12460;DHT22;6295;49.452;8.466;2022-09-06T14:40:36;25.70;99.90
12460;DHT22;6295;49.452;8.466;2022-09-06T14:48:46;25.30;99.90
12460;DHT22;6295;49.452;8.466;2022-09-06T14:56:57;25.10;99.90
12460;DHT22;6295;49.452;8.466;2022-09-06T15:01:08;24.90;99.90
12460;DHT22;6295;49.452;8.466;2022-09-06T15:05:13;24.80;99.90
12460;DHT22;6295;49.452;8.466;2022-09-06T15:09:17;24.70;99.90
12460;DHT22;6295;49.452;8.466;2022-09-06T15:17:24;24.50;99.90
12460;DHT22;6295;49.452;8.466;2022-09-06T15:21:29;24.40;99.90
12460;DHT22;6295;49.452;8.466;2022-09-06T15:29:38;24.30;99.90
12460;DHT22;6295;49.452;8.466;2022-09-06T15:37:46;24.30;99.90
12460;DHT22;6295;49.452;8.466;2022-09-06T15:41:50;24.20;99.90
12460;DHT22;6295;49.452;8.466;2022-09-06T15:49:55;24.20;99.90
12460;DHT22;6295;49.452;8.466;2022-09-06T15:53:58;24.20;99.90
12460;DHT22;6295;49.452;8.466;2022-09-06T15:58:02;24.10;99.90
12460;DHT22;6295;49.452;8.466;2022-09-06T16:02:04;24.10;99.90
12460;DHT22;6295;49.452;8.466;2022-09-06T16:14:15;24.00;99.90
12460;DHT22;6295;49.452;8.466;2022-09-06T16:26:29;23.90;99.90
12460;DHT22;6295;49.452;8.466;2022-09-06T16:30:34;23.80;99.90
12460;DHT22;6295;49.452;8.466;2022-09-06T16:34:36;23.80;99.90
12460;DHT22;6295;49.452;8.466;2022-09-06T16:42:41;23.80;99.90
12460;DHT22;6295;49.452;8.466;2022-09-06T16:50:49;23.70;99.90
12460;DHT22;6295;49.452;8.466;2022-09-06T16:58:55;23.50;99.90
12460;DHT22;6295;49.452;8.466;2022-09-06T17:02:59;23.50;99.90
12460;DHT22;6295;49.452;8.466;2022-09-06T17:07:01;23.30;99.90
12460;DHT22;6295;49.452;8.466;2022-09-06T17:11:05;23.20;99.90
12460;DHT22;6295;49.452;8.466;2022-09-06T17:15:08;23.10;99.90
12460;DHT22;6295;49.452;8.466;2022-09-06T17:19:12;23.10;99.90
12460;DHT22;6295;49.452;8.466;2022-09-06T17:27:17;23.00;99.90
12460;DHT22;6295;49.452;8.466;2022-09-06T17:31:21;22.90;99.90
12460;DHT22;6295;49.452;8.466;2022-09-06T17:35:26;22.90;99.90
12460;DHT22;6295;49.452;8.466;2022-09-06T17:43:31;22.80;99.90
12460;DHT22;6295;49.452;8.466;2022-09-06T17:51:40;22.60;99.90
12460;DHT22;6295;49.452;8.466;2022-09-06T17:59:45;22.50;99.90
12460;DHT22;6295;49.452;8.466;2022-09-06T18:07:52;22.30;99.90
12460;DHT22;6295;49.452;8.466;2022-09-06T18:11:54;22.30;99.90
12460;DHT22;6295;49.452;8.466;2022-09-06T18:15:57;22.20;99.90
12460;DHT22;6295;49.452;8.466;2022-09-06T18:20:03;22.10;99.90
12460;DHT22;6295;49.452;8.466;2022-09-06T18:24:07;21.90;99.90
12460;DHT22;6295;49.452;8.466;2022-09-06T18:28:10;21.80;99.90
12460;DHT22;6295;49.452;8.466;2022-09-06T18:36:17;21.70;99.90
12460;DHT22;6295;49.452;8.466;2022-09-06T18:40:21;21.70;99.90
12460;DHT22;6295;49.452;8.466;2022-09-06T18:44:23;21.70;99.90
12460;DHT22;6295;49.452;8.466;2022-09-06T18:52:30;21.70;99.90
12460;DHT22;6295;49.452;8.466;2022-09-06T19:00:37;21.80;99.90
12460;DHT22;6295;49.452;8.466;2022-09-06T19:04:39;21.80;99.90
12460;DHT22;6295;49.452;8.466;2022-09-06T19:08:42;21.70;99.90
12460;DHT22;6295;49.452;8.466;2022-09-06T19:12:45;21.70;99.90
12460;DHT22;6295;49.452;8.466;2022-09-06T19:16:47;21.60;99.90
12460;DHT22;6295;49.452;8.466;2022-09-06T19:20:56;21.50;99.90
12460;DHT22;6295;49.452;8.466;2022-09-06T19:24:58;21.40;99.90
12460;DHT22;6295;49.452;8.466;2022-09-06T19:29:04;21.30;99.90
12460;DHT22;6295;49.452;8.466;2022-09-06T19:37:08;21.20;99.90
12460;DHT22;6295;49.452;8.466;2022-09-06T19:41:12;21.10;99.90
12460;DHT22;6295;49.452;8.466;2022-09-06T19:49:18;20.90;99.90
12460;DHT22;6295;49.452;8.466;2022-09-06T19:53:22;20.80;99.90
12460;DHT22;6295;49.452;8.466;2022-09-06T19:57:26;20.70;99.90
12460;DHT22;6295;49.452;8.466;2022-09-06T20:05:36;20.50;99.90
12460;DHT22;6295;49.452;8.466;2022-09-06T20:09:38;20.50;99.90
12460;DHT22;6295;49.452;8.466;2022-09-06T20:13:41;20.40;99.90
12460;DHT22;6295;49.452;8.466;2022-09-06T20:17:46;20.30;99.90
12460;DHT22;6295;49.452;8.466;2022-09-06T20:21:48;20.20;99.90
12460;DHT22;6295;49.452;8.466;2022-09-06T20:25:57;20.20;99.90
12460;DHT22;6295;49.452;8.466;2022-09-06T20:30:01;20.10;99.90
12460;DHT22;6295;49.452;8.466;2022-09-06T20:34:06;20.00;99.90
12460;DHT22;6295;49.452;8.466;2022-09-06T20:42:10;19.90;99.90
12460;DHT22;6295;49.452;8.466;2022-09-06T20:46:14;19.90;99.90
12460;DHT22;6295;49.452;8.466;2022-09-06T20:54:21;19.80;99.90
12460;DHT22;6295;49.452;8.466;2022-09-06T20:58:23;19.70;99.90
12460;DHT22;6295;49.452;8.466;2022-09-06T21:02:25;19.80;99.90
12460;DHT22;6295;49.452;8.466;2022-09-06T21:06:30;19.70;99.90
12460;DHT22;6295;49.452;8.466;2022-09-06T21:10:33;19.60;99.90
12460;DHT22;6295;49.452;8.466;2022-09-06T21:14:36;19.50;99.90
12460;DHT22;6295;49.452;8.466;2022-09-06T21:18:38;19.50;99.90
12460;DHT22;6295;49.452;8.466;2022-09-06T21:22:41;19.40;99.90
12460;DHT22;6295;49.452;8.466;2022-09-06T21:26:44;19.40;99.90
12460;DHT22;6295;49.452;8.466;2022-09-06T21:30:46;19.40;99.90
12460;DHT22;6295;49.452;8.466;2022-09-06T21:34:49;19.30;99.90
12460;DHT22;6295;49.452;8.466;2022-09-06T21:38:54;19.30;99.90
12460;DHT22;6295;49.452;8.466;2022-09-06T21:42:56;19.20;99.90
12460;DHT22;6295;49.452;8.466;2022-09-06T21:46:58;19.10;99.90
12460;DHT22;6295;49.452;8.466;2022-09-06T21:55:05;19.10;99.90
12460;DHT22;6295;49.452;8.466;2022-09-06T21:59:07;19.00;99.90
12460;DHT22;6295;49.452;8.466;2022-09-06T22:03:10;19.00;99.90
12460;DHT22;6295;49.452;8.466;2022-09-06T22:07:12;18.90;99.90
12460;DHT22;6295;49.452;8.466;2022-09-06T22:11:17;18.90;99.90
12460;DHT22;6295;49.452;8.466;2022-09-06T22:15:19;18.90;99.90
12460;DHT22;6295;49.452;8.466;2022-09-06T22:19:23;18.80;99.90
12460;DHT22;6295;49.452;8.466;2022-09-06T22:23:25;18.80;99.90
12460;DHT22;6295;49.452;8.466;2022-09-06T22:31:32;18.70;99.90
12460;DHT22;6295;49.452;8.466;2022-09-06T22:39:37;18.70;99.90
12460;DHT22;6295;49.452;8.466;2022-09-06T22:43:40;18.70;99.90
12460;DHT22;6295;49.452;8.466;2022-09-06T22:47:42;18.70;99.90
12460;DHT22;6295;49.452;8.466;2022-09-06T22:51:44;18.70;99.90
12460;DHT22;6295;49.452;8.466;2022-09-06T22:55:47;18.60;99.90
12460;DHT22;6295;49.452;8.466;2022-09-06T23:07:55;18.70;99.90
12460;DHT22;6295;49.452;8.466;2022-09-06T23:16:05;18.70;99.90
12460;DHT22;6295;49.452;8.466;2022-09-06T23:24:12;18.60;99.90
12460;DHT22;6295;49.452;8.466;2022-09-06T23:28:14;18.60;99.90
12460;DHT22;6295;49.452;8.466;2022-09-06T23:36:20;18.70;99.90
12460;DHT22;6295;49.452;8.466;2022-09-06T23:40:22;18.80;99.90
12460;DHT22;6295;49.452;8.466;2022-09-06T23:52:30;18.80;99.90
12460;DHT22;6295;49.452;8.466;2022-09-06T23:56:32;18.90;99.90
